createdAt,value
2023-01-30T00:01:17.196Z,11.73
2023-01-30T00:04:07.341Z,12.70
2023-01-30T00:06:54.924Z,15.35
2023-01-30T00:09:42.639Z,14.63
2023-01-30T00:12:30.346Z,12.77
2023-01-30T00:15:18.162Z,14.10
2023-01-30T00:18:06.075Z,12.90
2023-01-30T00:21:00.755Z,12.70
2023-01-30T00:23:48.490Z,10.23
2023-01-30T00:26:36.328Z,14.32
2023-01-30T00:29:23.985Z,16.40
2023-01-30T00:32:11.704Z,12.32
2023-01-30T00:35:01.196Z,12.10
2023-01-30T00:37:49.244Z,11.10
2023-01-30T00:40:37.059Z,11.63
2023-01-30T00:43:43.871Z,13.85
2023-01-30T00:46:52.642Z,15.77
2023-01-30T00:49:40.315Z,11.50
2023-01-30T00:52:28.191Z,17.10
2023-01-30T00:55:16.421Z,9.73
2023-01-30T00:58:05.011Z,12.32
2023-01-30T01:00:53.362Z,11.60
2023-01-30T01:03:41.051Z,13.95
2023-01-30T01:06:28.698Z,11.15
2023-01-30T01:09:17.458Z,11.65
2023-01-30T01:12:05.822Z,13.15
2023-01-30T01:14:53.473Z,13.90
2023-01-30T01:17:42.869Z,11.73
2023-01-30T01:20:31.207Z,13.70
2023-01-30T01:23:19.149Z,9.55
2023-01-30T01:26:06.819Z,12.32
2023-01-30T01:28:59.432Z,8.93
2023-01-30T01:31:47.211Z,10.77
2023-01-30T01:34:36.616Z,8.27
2023-01-30T01:37:24.439Z,10.88
2023-01-30T01:40:40.448Z,14.75
2023-01-30T01:43:30.947Z,8.32
2023-01-30T01:46:25.835Z,7.35
2023-01-30T01:49:23.175Z,11.70
2023-01-30T01:52:15.754Z,10.95
2023-01-30T01:55:07.643Z,11.95
2023-01-30T01:58:03.720Z,11.88
2023-01-30T02:00:52.396Z,13.25
2023-01-30T02:03:44.999Z,10.15
2023-01-30T02:06:32.989Z,9.75
2023-01-30T02:09:22.015Z,11.98
2023-01-30T02:12:11.857Z,10.93
2023-01-30T02:15:01.079Z,11.15
2023-01-30T02:17:48.965Z,9.23
2023-01-30T02:21:10.534Z,10.38
2023-01-30T02:24:22.472Z,10.33
2023-01-30T02:27:19.641Z,11.63
2023-01-30T02:30:45.041Z,9.35
2023-01-30T02:33:47.256Z,15.82
2023-01-30T02:37:15.782Z,7.95
2023-01-30T02:40:21.935Z,10.85
2023-01-30T02:43:25.141Z,13.02
2023-01-30T02:46:25.035Z,9.43
2023-01-30T02:49:21.708Z,13.50
2023-01-30T02:52:13.200Z,16.52
2023-01-30T02:55:02.826Z,13.95
2023-01-30T02:57:50.709Z,9.85
2023-01-30T03:00:53.276Z,11.38
2023-01-30T03:04:26.754Z,11.65
2023-01-30T03:07:37.563Z,18.30
2023-01-30T03:10:30.344Z,17.02
2023-01-30T03:13:53.587Z,15.18
2023-01-30T03:16:44.028Z,17.65
2023-01-30T03:19:32.850Z,10.45
2023-01-30T03:22:22.385Z,13.85
2023-01-30T03:25:14.162Z,13.48
2023-01-30T03:28:04.113Z,20.75
2023-01-30T03:30:51.819Z,17.30
2023-01-30T03:33:40.722Z,12.23
2023-01-30T03:36:30.821Z,14.50
2023-01-30T03:39:20.764Z,13.10
2023-01-30T03:42:18.390Z,22.80
2023-01-30T03:45:06.496Z,11.80
2023-01-30T03:47:54.239Z,18.13
2023-01-30T03:50:41.931Z,17.23
2023-01-30T03:53:32.050Z,9.98
2023-01-30T03:56:19.959Z,12.05
2023-01-30T03:59:07.716Z,12.68
2023-01-30T04:02:05.493Z,10.45
2023-01-30T04:04:54.007Z,15.18
2023-01-30T04:07:42.033Z,16.55
2023-01-30T04:10:31.049Z,11.52
2023-01-30T04:13:18.893Z,14.55
2023-01-30T04:16:22.103Z,20.38
2023-01-30T04:19:32.377Z,15.48
2023-01-30T04:22:19.935Z,14.82
2023-01-30T04:25:08.886Z,10.48
2023-01-30T04:27:57.619Z,12.02
2023-01-30T04:30:49.796Z,14.63
2023-01-30T04:34:09.787Z,19.05
2023-01-30T04:36:59.776Z,11.45
2023-01-30T04:39:51.622Z,13.13
2023-01-30T04:42:39.474Z,13.63
2023-01-30T04:45:46.704Z,16.40
2023-01-30T04:48:38.042Z,10.73
2023-01-30T04:51:25.773Z,13.00
2023-01-30T04:54:13.710Z,14.18
2023-01-30T04:57:02.397Z,15.27
2023-01-30T05:00:01.573Z,14.70
2023-01-30T05:02:49.812Z,14.95
2023-01-30T05:05:37.769Z,15.95
2023-01-30T05:08:29.454Z,13.50
2023-01-30T05:11:17.232Z,15.05
2023-01-30T05:14:12.439Z,18.20
2023-01-30T05:17:00.287Z,16.42
2023-01-30T05:19:47.963Z,17.13
2023-01-30T05:22:37.977Z,16.42
2023-01-30T05:25:25.670Z,18.70
2023-01-30T05:28:13.419Z,14.18
2023-01-30T05:31:14.510Z,13.38
2023-01-30T05:34:02.274Z,17.35
2023-01-30T05:36:49.925Z,14.30
2023-01-30T05:39:38.183Z,13.07
2023-01-30T05:42:25.841Z,13.38
2023-01-30T05:45:13.501Z,11.43
2023-01-30T05:48:01.582Z,9.43
2023-01-30T05:50:54.412Z,13.80
2023-01-30T05:53:42.067Z,16.30
2023-01-30T05:56:33.445Z,13.88
2023-01-30T05:59:21.209Z,16.23
2023-01-30T06:02:11.096Z,15.38
2023-01-30T06:04:58.841Z,13.73
2023-01-30T06:07:46.569Z,14.10
2023-01-30T06:10:35.257Z,12.85
2023-01-30T06:13:22.984Z,19.90
2023-01-30T06:16:13.511Z,13.10
2023-01-30T06:19:02.360Z,15.55
2023-01-30T06:21:52.785Z,11.40
2023-01-30T06:24:43.336Z,20.40
2023-01-30T06:27:31.982Z,16.38
2023-01-30T06:30:19.863Z,17.20
2023-01-30T06:33:25.888Z,14.07
2023-01-30T06:36:16.048Z,24.40
2023-01-30T06:39:03.864Z,17.55
2023-01-30T06:41:51.764Z,21.92
2023-01-30T06:44:39.692Z,17.42
2023-01-30T06:47:27.392Z,18.40
2023-01-30T06:50:15.988Z,16.75
2023-01-30T06:53:06.423Z,18.35
2023-01-30T06:55:54.716Z,13.93
2023-01-30T06:58:42.465Z,17.15
2023-01-30T07:01:30.174Z,14.13
2023-01-30T07:04:18.133Z,14.15
2023-01-30T07:07:07.088Z,16.23
2023-01-30T07:10:06.873Z,23.58
2023-01-30T07:12:55.710Z,13.63
2023-01-30T07:15:44.734Z,19.33
2023-01-30T07:18:32.325Z,19.65
2023-01-30T07:21:20.037Z,11.13
2023-01-30T07:24:08.234Z,20.15
2023-01-30T07:26:55.980Z,20.02
2023-01-30T07:29:44.899Z,22.20
2023-01-30T07:32:32.645Z,11.02
2023-01-30T07:35:21.410Z,13.80
2023-01-30T07:38:09.315Z,10.60
2023-01-30T07:40:58.864Z,30.92
2023-01-30T07:43:48.818Z,18.52
2023-01-30T07:46:36.521Z,22.80
2023-01-30T07:49:24.502Z,26.25
2023-01-30T07:52:12.124Z,25.98
2023-01-30T07:55:01.469Z,19.30
2023-01-30T07:57:49.323Z,11.93
2023-01-30T08:00:37.089Z,23.77
2023-01-30T08:03:24.742Z,22.27
2023-01-30T08:06:14.132Z,25.02
2023-01-30T08:09:01.751Z,18.50
2023-01-30T08:11:49.441Z,14.30
2023-01-30T08:14:37.062Z,13.75
2023-01-30T08:17:24.896Z,13.95
2023-01-30T08:20:17.049Z,19.27
2023-01-30T08:23:05.453Z,19.20
2023-01-30T08:25:57.772Z,22.63
2023-01-30T08:28:45.581Z,21.23
2023-01-30T08:31:33.221Z,18.23
2023-01-30T08:34:20.899Z,22.00
2023-01-30T08:37:08.601Z,18.80
2023-01-30T08:39:59.314Z,9.05
2023-01-30T08:42:46.976Z,15.73
2023-01-30T08:45:34.975Z,18.05
2023-01-30T08:48:23.617Z,11.52
2023-01-30T08:51:11.723Z,12.43
2023-01-30T08:53:59.755Z,11.05
2023-01-30T08:56:47.596Z,8.88
2023-01-30T08:59:35.167Z,13.18
2023-01-30T09:02:23.013Z,13.93
2023-01-30T09:05:14.088Z,16.05
2023-01-30T09:08:01.655Z,13.10
2023-01-30T09:10:49.296Z,13.60
2023-01-30T09:13:38.979Z,15.30
2023-01-30T09:16:26.589Z,21.27
2023-01-30T09:19:14.744Z,14.15
2023-01-30T09:22:02.305Z,15.55
2023-01-30T09:24:55.671Z,13.00
2023-01-30T09:27:44.747Z,13.48
2023-01-30T09:30:32.651Z,11.80
2023-01-30T09:33:20.697Z,16.02
2023-01-30T09:36:11.699Z,12.00
2023-01-30T09:38:59.423Z,21.40
2023-01-30T09:41:56.201Z,22.38
2023-01-30T09:44:47.840Z,11.45
2023-01-30T09:47:46.075Z,13.48
2023-01-30T09:50:48.547Z,13.93
2023-01-30T09:53:36.510Z,17.05
2023-01-30T09:56:24.546Z,17.48
2023-01-30T09:59:24.037Z,17.52
2023-01-30T10:02:45.448Z,15.93
2023-01-30T10:05:40.889Z,17.58
2023-01-30T10:09:10.190Z,19.42
2023-01-30T10:12:04.757Z,16.88
2023-01-30T10:15:07.939Z,16.17
2023-01-30T10:18:18.488Z,17.33
2023-01-30T10:21:33.019Z,23.73
2023-01-30T10:24:32.463Z,14.27
2023-01-30T10:27:22.408Z,14.88
2023-01-30T10:30:16.661Z,19.40
2023-01-30T10:33:18.936Z,18.73
2023-01-30T10:36:18.905Z,19.52
2023-01-30T10:39:21.367Z,16.63
2023-01-30T10:42:22.717Z,22.60
2023-01-30T10:45:22.653Z,16.95
2023-01-30T10:48:16.463Z,11.90
2023-01-30T10:51:10.753Z,15.13
2023-01-30T10:54:14.041Z,14.50
2023-01-30T10:57:26.641Z,12.13
2023-01-30T11:00:35.607Z,12.40
2023-01-30T11:03:31.860Z,14.50
2023-01-30T11:06:24.235Z,16.75
2023-01-30T11:12:00.582Z,16.05
2023-01-30T11:14:58.956Z,14.18
2023-01-30T11:17:49.043Z,17.00
2023-01-30T11:20:48.022Z,20.00
2023-01-30T11:23:41.407Z,13.98
2023-01-30T11:26:46.817Z,13.35
2023-01-30T11:29:38.065Z,11.80
2023-01-30T11:32:28.594Z,13.80
2023-01-30T11:35:19.226Z,9.93
2023-01-30T11:38:41.024Z,18.83
2023-01-30T11:41:29.820Z,14.05
2023-01-30T11:44:17.398Z,10.90
2023-01-30T11:47:10.397Z,9.38
2023-01-30T11:50:03.702Z,11.27
2023-01-30T11:53:16.281Z,11.88
2023-01-30T11:56:24.587Z,8.70
2023-01-30T11:59:37.055Z,13.18
2023-01-30T12:02:32.644Z,14.25
2023-01-30T12:05:36.904Z,14.35
2023-01-30T12:08:47.088Z,11.13
2023-01-30T12:11:40.454Z,10.93
2023-01-30T12:14:39.788Z,14.00
2023-01-30T12:17:49.152Z,13.38
2023-01-30T12:21:00.076Z,13.57
2023-01-30T12:24:01.111Z,17.33
2023-01-30T12:27:00.802Z,12.65
2023-01-30T12:30:11.376Z,8.90
2023-01-30T12:33:05.052Z,8.57
2023-01-30T12:36:01.550Z,16.98
2023-01-30T12:39:12.669Z,43.58
2023-01-30T12:42:34.025Z,18.55
2023-01-30T12:45:26.985Z,14.98
2023-01-30T12:48:38.286Z,15.00
2023-01-30T12:51:49.572Z,12.13
2023-01-30T12:55:21.552Z,10.88
2023-01-30T12:58:25.128Z,15.40
2023-01-30T13:01:46.448Z,16.85
2023-01-30T13:05:01.726Z,11.02
2023-01-30T13:08:09.261Z,9.60
2023-01-30T13:11:02.806Z,16.15
2023-01-30T13:13:50.423Z,22.55
2023-01-30T13:16:58.071Z,11.52
2023-01-30T13:20:13.376Z,12.13
2023-01-30T13:23:27.469Z,10.38
2023-01-30T13:26:21.415Z,18.92
2023-01-30T13:29:42.286Z,16.30
2023-01-30T13:32:51.112Z,11.77
2023-01-30T13:35:46.869Z,12.75
2023-01-30T13:38:36.837Z,12.88
2023-01-30T13:41:25.749Z,8.73
2023-01-30T13:44:25.556Z,12.57
2023-01-30T13:47:40.941Z,13.75
2023-01-30T13:51:10.262Z,14.43
2023-01-30T13:54:29.777Z,16.23
2023-01-30T13:57:38.064Z,15.32
2023-01-30T14:00:34.101Z,18.15
2023-01-30T14:03:26.381Z,14.80
2023-01-30T14:06:22.624Z,15.30
2023-01-30T14:09:24.530Z,12.05
2023-01-30T14:12:27.856Z,18.35
2023-01-30T14:15:15.513Z,12.70
2023-01-30T14:18:36.770Z,15.50
2023-01-30T14:21:25.601Z,15.07
2023-01-30T14:24:23.179Z,19.60
2023-01-30T14:27:29.956Z,15.65
2023-01-30T14:30:34.995Z,15.68
2023-01-30T14:33:22.644Z,26.85
2023-01-30T14:36:16.265Z,26.58
2023-01-30T14:39:41.063Z,19.25
2023-01-30T14:42:31.290Z,16.30
2023-01-30T14:45:56.398Z,16.98
2023-01-30T14:49:01.247Z,14.82
2023-01-30T14:54:51.576Z,20.33
2023-01-30T14:57:40.534Z,22.95
2023-01-30T15:00:32.626Z,21.52
2023-01-30T15:03:21.047Z,17.92
2023-01-30T15:06:08.788Z,23.63
2023-01-30T15:08:57.234Z,25.90
2023-01-30T15:12:01.791Z,21.80
2023-01-30T15:14:58.492Z,29.70
2023-01-30T15:18:08.282Z,28.50
2023-01-30T15:21:20.410Z,34.03
2023-01-30T15:24:46.776Z,30.60
2023-01-30T15:27:40.395Z,31.02
2023-01-30T15:30:49.734Z,36.45
2023-01-30T15:33:49.009Z,35.58
2023-01-30T15:36:37.353Z,26.75
2023-01-30T15:39:27.162Z,25.55
2023-01-30T15:42:15.830Z,31.35
2023-01-30T15:45:14.991Z,29.70
2023-01-30T15:48:23.802Z,34.65
2023-01-30T15:51:18.442Z,36.00
2023-01-30T15:54:11.563Z,40.28
2023-01-30T15:57:01.025Z,48.00
2023-01-30T15:59:51.929Z,49.45
2023-01-30T16:02:44.451Z,48.75
2023-01-30T16:08:27.054Z,77.32
2023-01-30T16:11:39.151Z,85.50
2023-01-30T16:14:38.049Z,97.93
2023-01-30T16:17:31.866Z,121.20
2023-01-30T16:20:19.565Z,107.25
2023-01-30T16:23:31.315Z,90.97
2023-01-30T16:26:24.532Z,85.45
2023-01-30T16:29:25.176Z,71.68
2023-01-30T16:32:15.047Z,93.45
2023-01-30T16:35:27.149Z,102.03
2023-01-30T16:38:37.430Z,82.80
2023-01-30T16:41:43.615Z,77.78
2023-01-30T16:44:32.831Z,81.45
2023-01-30T16:47:31.815Z,118.82
2023-01-30T16:50:23.549Z,184.20
2023-01-30T16:53:19.361Z,176.63
2023-01-30T16:56:11.087Z,132.40
2023-01-30T16:59:01.170Z,168.68
2023-01-30T17:01:49.481Z,148.68
2023-01-30T17:04:43.457Z,112.30
2023-01-30T17:07:40.905Z,112.45
2023-01-30T17:10:29.129Z,83.78
2023-01-30T17:13:40.034Z,78.43
2023-01-30T17:16:35.490Z,60.95
2023-01-30T17:19:23.203Z,48.78
2023-01-30T17:22:26.828Z,52.28
2023-01-30T17:25:41.110Z,43.15
2023-01-30T17:28:37.529Z,37.22
2023-01-30T17:31:25.576Z,37.80
2023-01-30T17:34:24.560Z,39.88
2023-01-30T17:37:24.742Z,37.67
2023-01-30T17:43:22.028Z,42.58
2023-01-30T17:46:13.865Z,40.53
2023-01-30T17:49:01.671Z,46.80
2023-01-30T17:51:53.077Z,41.58
2023-01-30T17:54:41.195Z,48.70
2023-01-30T17:57:29.228Z,40.85
2023-01-30T18:00:22.883Z,45.33
2023-01-30T18:03:14.931Z,47.63
2023-01-30T18:06:02.804Z,46.08
2023-01-30T18:08:54.149Z,39.28
2023-01-30T18:11:44.979Z,39.42
2023-01-30T18:14:32.887Z,33.20
2023-01-30T18:17:21.425Z,27.65
2023-01-30T18:20:10.968Z,56.63
2023-01-30T18:22:58.716Z,67.28
2023-01-30T18:25:46.364Z,64.60
2023-01-30T18:28:34.040Z,69.30
2023-01-30T18:31:24.160Z,42.65
2023-01-30T18:34:12.198Z,84.40
2023-01-30T18:37:08.314Z,66.05
2023-01-30T18:39:56.082Z,43.05
2023-01-30T18:42:46.126Z,56.20
2023-01-30T18:45:34.182Z,69.70
2023-01-30T18:48:30.667Z,58.97
2023-01-30T18:51:24.612Z,49.15
2023-01-30T18:54:12.271Z,50.95
2023-01-30T18:57:06.530Z,60.70
2023-01-30T18:59:54.204Z,55.00
2023-01-30T19:02:46.214Z,61.90
2023-01-30T19:05:39.262Z,76.75
2023-01-30T19:08:33.951Z,65.10
2023-01-30T19:11:44.178Z,71.15
2023-01-30T19:14:32.903Z,71.10
2023-01-30T19:17:29.295Z,69.43
2023-01-30T19:20:19.720Z,78.72
2023-01-30T19:23:08.990Z,53.65
2023-01-30T19:26:03.563Z,56.20
2023-01-30T19:28:52.499Z,49.05
2023-01-30T19:31:40.815Z,42.53
2023-01-30T19:34:28.592Z,56.50
2023-01-30T19:37:16.542Z,51.80
2023-01-30T19:40:09.123Z,46.83
2023-01-30T19:43:09.238Z,52.33
2023-01-30T19:45:59.900Z,52.15
2023-01-30T19:48:48.863Z,55.08
2023-01-30T19:51:36.674Z,52.92
2023-01-30T19:54:24.413Z,198.55
2023-01-30T19:57:12.042Z,239.45
2023-01-30T19:59:59.711Z,164.60
2023-01-30T20:02:48.028Z,154.07
2023-01-30T20:05:35.840Z,151.38
2023-01-30T20:08:32.362Z,116.93
2023-01-30T20:11:23.648Z,132.65
2023-01-30T20:14:11.536Z,128.73
2023-01-30T20:16:59.199Z,125.90
2023-01-30T20:19:49.212Z,114.45
2023-01-30T20:22:36.882Z,112.97
2023-01-30T20:25:24.807Z,122.55
2023-01-30T20:28:12.445Z,100.55
2023-01-30T20:31:01.176Z,99.60
2023-01-30T20:33:52.843Z,99.85
2023-01-30T20:36:41.409Z,103.13
2023-01-30T20:39:29.707Z,97.65
2023-01-30T20:42:18.953Z,124.88
2023-01-30T20:45:07.221Z,126.07
2023-01-30T20:47:54.852Z,85.72
2023-01-30T20:50:42.876Z,81.35
2023-01-30T20:53:30.656Z,79.03
2023-01-30T20:56:19.716Z,74.93
2023-01-30T20:59:08.241Z,73.18
2023-01-30T21:01:57.999Z,76.93
2023-01-30T21:04:45.665Z,86.00
2023-01-30T21:07:35.904Z,87.40
2023-01-30T21:10:23.580Z,93.80
2023-01-30T21:13:11.211Z,83.40
2023-01-30T21:16:08.602Z,86.63
2023-01-30T21:19:00.694Z,81.28
2023-01-30T21:21:58.054Z,93.55
2023-01-30T21:24:45.711Z,80.57
2023-01-30T21:27:33.586Z,76.85
2023-01-30T21:30:21.286Z,82.97
2023-01-30T21:33:08.894Z,69.40
2023-01-30T21:36:03.829Z,86.45
2023-01-30T21:39:09.869Z,119.75
2023-01-30T21:41:57.586Z,119.30
2023-01-30T21:44:45.273Z,117.60
2023-01-30T21:47:33.165Z,123.57
2023-01-30T21:50:21.225Z,143.05
2023-01-30T21:53:10.312Z,129.15
2023-01-30T21:56:04.625Z,146.55
2023-01-30T21:58:52.855Z,112.85
2023-01-30T22:01:41.899Z,100.40
2023-01-30T22:04:29.542Z,91.45
2023-01-30T22:07:17.207Z,81.03
2023-01-30T22:10:05.181Z,93.47
2023-01-30T22:12:52.951Z,83.25
2023-01-30T22:15:40.579Z,76.85
2023-01-30T22:18:28.321Z,63.80
2023-01-30T22:21:19.397Z,48.10
2023-01-30T22:24:08.706Z,64.00
2023-01-30T22:26:56.497Z,71.20
2023-01-30T22:29:44.118Z,46.30
2023-01-30T22:32:34.746Z,49.08
2023-01-30T22:35:22.463Z,37.75
2023-01-30T22:38:10.202Z,32.75
2023-01-30T22:41:08.906Z,37.38
2023-01-30T22:43:59.182Z,37.65
2023-01-30T22:46:46.890Z,43.25
2023-01-30T22:49:34.592Z,32.72
2023-01-30T22:52:22.243Z,22.40
2023-01-30T22:55:10.141Z,21.77
2023-01-30T22:57:57.832Z,19.00
2023-01-30T23:00:45.535Z,18.13
2023-01-30T23:03:33.366Z,28.33
2023-01-30T23:06:21.284Z,24.38
2023-01-30T23:09:13.730Z,16.25
2023-01-30T23:12:20.170Z,19.75
2023-01-30T23:15:08.266Z,19.95
2023-01-30T23:18:17.037Z,14.75
2023-01-30T23:21:11.272Z,21.52
2023-01-30T23:24:00.722Z,12.20
2023-01-30T23:26:50.507Z,13.30
2023-01-30T23:29:38.130Z,13.27
2023-01-30T23:32:25.782Z,18.85
2023-01-30T23:35:13.488Z,9.05
2023-01-30T23:38:16.717Z,14.93
2023-01-30T23:41:05.458Z,13.85
2023-01-30T23:43:53.997Z,9.10
2023-01-30T23:46:42.712Z,11.23
2023-01-30T23:49:30.375Z,12.13
2023-01-30T23:52:18.039Z,12.05
2023-01-30T23:55:06.996Z,10.98
2023-01-30T23:57:57.165Z,13.65
